Time;durP1;ratioP1;P1;durP2;ratioP2;P2;SDS_P1;SDS_P2;PMS_P1;PMS_P2;Temp;Humidity;BMP_temperature;BMP_pressure;BME280_temperature;BME280_humidity;BME280_pressure;Samples;Min_cycle;Max_cycle;Signal;HPM_P1;HPM_P2
2022/07/13 00:01:32;;;;;;;14.25;11.95;;;;;;;20.53;81.16;102154.22;5014064;28;20471;-50
2022/07/13 00:03:59;;;;;;;13.40;11.77;;;;;;;20.55;81.95;102160.66;5013807;28;20046;-52
2022/07/13 00:06:25;;;;;;;13.95;12.20;;;;;;;20.52;81.70;102164.31;5014413;28;20108;-53
2022/07/13 00:08:52;;;;;;;14.63;13.15;;;;;;;20.45;81.66;102159.28;5013281;28;20050;-54
2022/07/13 00:11:18;;;;;;;15.13;11.82;;;;;;;20.45;83.15;102163.97;5012589;28;20072;-55
2022/07/13 00:13:45;;;;;;;15.15;12.25;;;;;;;20.42;80.80;102160.25;5012908;28;20050;-54
2022/07/13 00:16:11;;;;;;;18.20;13.07;;;;;;;20.42;82.26;102149.44;5013365;28;20061;-53
2022/07/13 00:18:38;;;;;;;15.85;13.23;;;;;;;20.37;82.24;102149.34;5013919;28;20057;-54
2022/07/13 00:21:04;;;;;;;21.17;14.20;;;;;;;20.38;82.37;102148.16;5013722;28;20050;-55
2022/07/13 00:23:31;;;;;;;15.43;13.40;;;;;;;20.38;82.01;102129.22;5014288;28;20056;-52
2022/07/13 00:25:57;;;;;;;15.75;13.60;;;;;;;20.39;83.21;102126.06;5013705;28;20483;-54
2022/07/13 00:28:23;;;;;;;16.15;14.10;;;;;;;20.38;83.59;102131.94;5014020;28;20046;-54
2022/07/13 00:30:50;;;;;;;18.60;13.75;;;;;;;20.39;82.85;102130.72;5014027;28;20055;-53
2022/07/13 00:33:16;;;;;;;22.67;13.98;;;;;;;20.36;82.98;102131.63;4999368;28;20441;-51
2022/07/13 00:35:42;;;;;;;14.75;13.25;;;;;;;20.31;83.88;102125.69;5013408;28;20084;-55
2022/07/13 00:38:09;;;;;;;19.83;13.48;;;;;;;20.33;83.43;102121.78;5013936;28;20142;-52
2022/07/13 00:40:35;;;;;;;17.98;14.10;;;;;;;20.30;83.35;102118.06;5013241;28;20051;-53
2022/07/13 00:43:02;;;;;;;16.90;13.63;;;;;;;20.30;82.62;102112.66;5014097;28;20486;-53
2022/07/13 00:45:29;;;;;;;15.60;14.00;;;;;;;20.34;84.04;102110.47;5014025;28;20130;-55
2022/07/13 00:47:57;;;;;;;18.27;13.98;;;;;;;20.30;83.00;102109.94;5013061;28;20057;-53
2022/07/13 00:50:23;;;;;;;15.68;13.90;;;;;;;20.25;82.29;102099.81;5013612;28;20055;-55
2022/07/13 00:52:50;;;;;;;18.13;12.85;;;;;;;20.26;83.86;102106.69;5012746;28;20149;-54
2022/07/13 00:55:18;;;;;;;16.35;13.55;;;;;;;20.26;83.72;102104.72;5013525;28;20485;-50
2022/07/13 00:57:44;;;;;;;17.65;13.70;;;;;;;20.28;82.86;102104.25;5013710;28;20065;-50
2022/07/13 01:00:13;;;;;;;16.88;13.35;;;;;;;20.27;82.71;102100.81;5012944;28;20050;-54
2022/07/13 01:02:40;;;;;;;14.77;13.32;;;;;;;20.27;84.10;102098.09;5013578;28;20046;-52
2022/07/13 01:05:09;;;;;;;16.10;13.68;;;;;;;20.27;83.79;102105.47;5013959;28;20076;-50
2022/07/13 01:07:36;;;;;;;15.18;13.63;;;;;;;20.26;83.36;102093.19;5013576;28;20113;-52
2022/07/13 01:10:05;;;;;;;14.02;12.73;;;;;;;20.25;81.19;102094.41;5013096;28;20108;-54
2022/07/13 01:12:36;;;;;;;15.30;13.68;;;;;;;20.22;83.53;102093.38;5013885;28;20145;-49
2022/07/13 01:15:07;;;;;;;14.82;13.02;;;;;;;20.21;81.93;102083.78;5013309;28;20050;-51
2022/07/13 01:17:35;;;;;;;15.00;13.35;;;;;;;20.22;82.99;102084.53;5012800;28;20057;-50
2022/07/13 01:20:03;;;;;;;15.68;13.63;;;;;;;20.20;83.16;102089.66;5013360;28;20156;-49
2022/07/13 01:22:36;;;;;;;13.68;12.27;;;;;;;20.18;82.93;102092.84;5012352;28;20050;-50
2022/07/13 01:25:04;;;;;;;14.38;12.75;;;;;;;20.15;82.47;102082.22;5013064;28;20503;-51
2022/07/13 01:27:33;;;;;;;13.52;12.32;;;;;;;20.13;83.27;102084.66;5013204;28;20054;-49
2022/07/13 01:30:00;;;;;;;16.13;12.65;;;;;;;20.10;82.61;102080.94;5013297;28;20054;-52
2022/07/13 01:32:26;;;;;;;14.57;12.57;;;;;;;20.06;83.03;102087.75;5012821;28;20051;-51
2022/07/13 01:34:53;;;;;;;13.45;12.23;;;;;;;20.06;83.54;102080.41;5012668;28;20150;-53
2022/07/13 01:37:20;;;;;;;15.63;12.07;;;;;;;20.05;83.54;102076.22;5013353;28;20050;-49
2022/07/13 01:39:46;;;;;;;13.60;11.90;;;;;;;20.06;84.14;102085.06;5012349;28;20113;-51
2022/07/13 01:42:13;;;;;;;13.30;11.98;;;;;;;20.07;83.91;102086.53;5013225;28;20054;-52
2022/07/13 01:44:39;;;;;;;17.88;12.10;;;;;;;20.05;83.71;102083.56;5011963;28;20046;-50
2022/07/13 01:47:08;;;;;;;14.00;12.70;;;;;;;20.01;83.65;102083.78;5013051;28;20057;-52
2022/07/13 01:49:35;;;;;;;13.02;11.73;;;;;;;19.99;84.16;102086.22;5012844;28;20061;-53
2022/07/13 01:52:01;;;;;;;15.15;12.65;;;;;;;19.95;83.59;102077.56;5014148;28;20073;-49
2022/07/13 01:54:28;;;;;;;13.88;12.48;;;;;;;19.95;83.82;102081.03;5015863;28;20129;-50
2022/07/13 01:56:54;;;;;;;15.05;11.98;;;;;;;19.95;83.21;102070.22;5016116;28;20065;-53
2022/07/13 01:59:20;;;;;;;14.50;12.63;;;;;;;19.97;83.63;102067.03;5016270;28;20050;-50
2022/07/13 02:01:47;;;;;;;12.95;11.65;;;;;;;19.95;83.82;102053.25;5015642;28;20046;-50
2022/07/13 02:04:13;;;;;;;14.27;11.10;;;;;;;19.96;83.85;102054.75;5016120;28;20046;-55
2022/07/13 02:06:40;;;;;;;13.18;11.32;;;;;;;19.94;84.37;102049.06;5016004;28;20087;-49
2022/07/13 02:09:06;;;;;;;13.43;11.35;;;;;;;19.95;84.05;102058.66;5014741;28;20511;-50
2022/07/13 02:11:33;;;;;;;12.43;11.18;;;;;;;19.92;84.12;102046.09;5016156;28;20458;-52
2022/07/13 02:13:59;;;;;;;12.02;10.90;;;;;;;19.89;84.35;102039.66;5015904;28;20127;-53
2022/07/13 02:16:25;;;;;;;14.57;11.02;;;;;;;19.89;84.77;102047.03;5015416;28;20533;-50
2022/07/13 02:18:52;;;;;;;12.18;11.02;;;;;;;19.87;82.66;102038.66;5015319;28;20149;-52
2022/07/13 02:21:18;;;;;;;12.48;11.27;;;;;;;19.89;82.35;102036.97;5016085;28;20054;-48
2022/07/13 02:23:45;;;;;;;12.68;11.45;;;;;;;19.87;81.20;102033.25;5013641;28;20686;-49
2022/07/13 02:26:11;;;;;;;14.98;10.95;;;;;;;19.87;82.53;102034.00;5014930;28;20061;-52
2022/07/13 02:28:37;;;;;;;12.02;10.80;;;;;;;19.92;83.57;102035.28;5015332;28;20054;-52
2022/07/13 02:31:04;;;;;;;12.45;11.15;;;;;;;19.89;82.88;102031.56;5015676;28;20426;-51
2022/07/13 02:33:30;;;;;;;12.05;10.90;;;;;;;19.90;83.39;102035.75;5016077;28;20494;-49
2022/07/13 02:35:57;;;;;;;12.05;11.00;;;;;;;19.88;83.29;102037.44;5014864;28;20061;-52
2022/07/13 02:38:24;;;;;;;12.38;11.18;;;;;;;19.85;83.86;102030.28;5015851;28;20474;-50
2022/07/13 02:40:50;;;;;;;12.73;11.43;;;;;;;19.88;83.39;102029.34;5014866;28;20046;-50
2022/07/13 02:43:17;;;;;;;12.38;11.13;;;;;;;19.86;83.38;102021.69;5015788;28;20042;-50
2022/07/13 02:45:43;;;;;;;12.10;11.00;;;;;;;19.84;84.10;102021.44;5014632;28;20054;-53
2022/07/13 02:48:09;;;;;;;12.95;11.38;;;;;;;19.83;84.26;102019.94;5015665;28;20061;-50
2022/07/13 02:50:36;;;;;;;11.95;10.75;;;;;;;19.84;83.62;102021.44;5012443;28;20050;-54
2022/07/13 02:53:02;;;;;;;14.27;11.85;;;;;;;19.85;83.31;102022.19;5015059;28;20066;-51
2022/07/13 02:55:30;;;;;;;11.77;10.60;;;;;;;19.85;83.53;102025.63;5013771;28;20169;-48
2022/07/13 02:57:58;;;;;;;12.68;11.38;;;;;;;19.86;84.23;102016.28;5015428;28;20046;-49
2022/07/13 03:00:24;;;;;;;12.43;11.20;;;;;;;19.83;83.51;102014.53;5014657;28;20042;-53
2022/07/13 03:02:50;;;;;;;12.35;11.15;;;;;;;19.85;83.80;102022.19;5015413;28;20141;-51
2022/07/13 03:05:18;;;;;;;12.43;11.13;;;;;;;19.83;83.88;102014.53;5014976;28;20141;-51
2022/07/13 03:07:44;;;;;;;11.02;9.93;;;;;;;19.82;83.83;102006.91;5014747;28;20057;-49
2022/07/13 03:10:10;;;;;;;13.75;11.05;;;;;;;19.79;83.32;102010.56;5015275;28;20073;-48
2022/07/13 03:12:37;;;;;;;12.27;11.02;;;;;;;19.77;83.54;102002.19;5015444;28;20052;-48
2022/07/13 03:15:04;;;;;;;13.43;10.55;;;;;;;19.76;84.51;102009.53;5013252;28;20065;-51
2022/07/13 03:17:30;;;;;;;12.18;10.95;;;;;;;19.74;84.76;101998.47;5015142;28;20046;-50
2022/07/13 03:19:57;;;;;;;11.88;10.23;;;;;;;19.73;83.66;101996.22;5013518;28;20490;-48
2022/07/13 03:22:23;;;;;;;12.20;11.00;;;;;;;19.70;83.43;101995.22;5002923;28;20062;-49
2022/07/13 03:24:49;;;;;;;13.13;11.82;;;;;;;19.68;83.21;101994.19;5014822;28;20046;-53
2022/07/13 03:27:16;;;;;;;13.02;11.77;;;;;;;19.69;83.39;101990.28;5015304;28;20557;-50
2022/07/13 03:29:42;;;;;;;15.15;11.85;;;;;;;19.70;83.42;101984.41;5013621;28;20046;-49
2022/07/13 03:32:09;;;;;;;12.85;11.65;;;;;;;19.72;83.23;101986.63;5014962;28;20883;-50
2022/07/13 03:34:35;;;;;;;12.93;11.70;;;;;;;19.71;82.54;101987.84;5014261;28;20553;-53
2022/07/13 03:37:02;;;;;;;14.65;11.88;;;;;;;19.70;83.09;101989.81;5013377;28;20058;-52
2022/07/13 03:39:28;;;;;;;15.45;12.45;;;;;;;19.73;81.35;101986.16;5015063;28;20061;-53
2022/07/13 03:41:54;;;;;;;15.82;12.27;;;;;;;19.76;83.22;101982.53;5014395;28;20055;-51
2022/07/13 03:44:21;;;;;;;13.45;12.02;;;;;;;19.78;82.92;101982.78;5013480;28;20057;-52
2022/07/13 03:46:47;;;;;;;13.95;12.57;;;;;;;19.78;82.03;101990.16;5013488;28;20056;-53
2022/07/13 03:49:13;;;;;;;18.13;13.32;;;;;;;19.78;81.37;101984.75;5012540;28;21121;-50
2022/07/13 03:51:41;;;;;;;14.30;12.27;;;;;;;19.82;81.77;101979.88;5014484;28;20486;-53
2022/07/13 03:54:07;;;;;;;15.07;13.60;;;;;;;19.81;81.02;101976.44;5014204;28;20137;-52
2022/07/13 03:56:34;;;;;;;17.02;13.40;;;;;;;19.82;79.18;101988.75;5014476;28;20058;-54
2022/07/13 03:59:00;;;;;;;17.45;13.50;;;;;;;19.88;80.21;101984.16;5014344;28;20050;-54
2022/07/13 04:01:26;;;;;;;17.02;14.13;;;;;;;19.88;78.38;101978.00;5013614;28;20047;-52
2022/07/13 04:03:53;;;;;;;15.75;13.38;;;;;;;19.91;80.15;101975.09;5013681;28;20060;-49
2022/07/13 04:06:19;;;;;;;14.65;13.02;;;;;;;19.95;78.46;101972.94;5013867;28;20054;-54
2022/07/13 04:08:46;;;;;;;18.35;13.07;;;;;;;19.98;79.99;101982.03;5013891;28;20074;-51
2022/07/13 04:11:13;;;;;;;14.80;13.15;;;;;;;19.96;80.30;101976.38;5013577;28;20061;-50
2022/07/13 04:13:39;;;;;;;16.08;14.50;;;;;;;19.98;79.17;101966.56;5013347;28;20050;-52
2022/07/13 04:16:06;;;;;;;13.73;11.77;;;;;;;20.01;80.94;101967.56;5011841;28;20065;-53
2022/07/13 04:18:32;;;;;;;14.27;12.80;;;;;;;20.03;81.24;101962.41;5014314;28;20050;-53
2022/07/13 04:20:59;;;;;;;16.63;13.95;;;;;;;20.02;80.38;101971.00;5013668;28;20050;-53
2022/07/13 04:23:28;;;;;;;14.43;12.95;;;;;;;20.01;81.31;101972.97;5013764;28;20093;-51
2022/07/13 04:25:54;;;;;;;13.43;12.07;;;;;;;20.01;81.20;101970.25;5014231;28;20505;-52
2022/07/13 04:28:21;;;;;;;18.85;13.18;;;;;;;20.04;81.06;101972.00;5013429;28;20048;-52
2022/07/13 04:30:48;;;;;;;17.33;13.18;;;;;;;20.06;79.60;101968.84;5013562;28;20050;-51
2022/07/13 04:33:15;;;;;;;16.17;13.18;;;;;;;20.11;80.18;101963.50;5013306;28;20422;-50
2022/07/13 04:35:41;;;;;;;13.65;12.35;;;;;;;20.16;81.14;101960.09;5013857;28;20062;-52
2022/07/13 04:38:08;;;;;;;13.32;11.95;;;;;;;20.19;80.36;101964.56;5014227;28;20410;-51
2022/07/13 04:40:34;;;;;;;12.63;11.07;;;;;;;20.23;81.29;101962.38;5013412;28;20050;-54
2022/07/13 04:43:00;;;;;;;16.00;13.07;;;;;;;20.28;80.15;101969.06;5013222;28;20061;-54
2022/07/13 04:45:27;;;;;;;14.98;12.57;;;;;;;20.33;80.69;101951.41;5012925;28;20056;-52
2022/07/13 04:47:58;;;;;;;12.88;11.45;;;;;;;20.37;79.79;101947.28;5013844;28;20046;-49
2022/07/13 04:50:25;;;;;;;13.20;11.93;;;;;;;20.37;79.58;101952.69;5011426;28;20054;-50
2022/07/13 04:52:52;;;;;;;14.43;11.98;;;;;;;20.42;79.31;101952.00;5012986;28;20063;-49
2022/07/13 04:55:19;;;;;;;14.02;11.50;;;;;;;20.46;80.21;101947.13;5013499;28;20054;-52
2022/07/13 04:57:45;;;;;;;14.20;11.15;;;;;;;20.52;79.16;101950.63;5012835;28;20803;-51
2022/07/13 05:00:12;;;;;;;14.88;12.50;;;;;;;20.52;78.05;101947.91;5009748;28;20578;-53
2022/07/13 05:02:38;;;;;;;12.25;10.93;;;;;;;20.59;79.42;101950.19;5011859;28;20146;-55
2022/07/13 05:05:06;;;;;;;15.75;11.52;;;;;;;20.64;78.71;101951.44;5011295;28;20061;-55
2022/07/13 05:07:32;;;;;;;12.43;11.13;;;;;;;20.73;77.58;101947.84;5011052;28;20055;-53
2022/07/13 05:10:05;;;;;;;11.80;10.68;;;;;;;20.84;76.60;101945.94;5013432;28;20058;-54
2022/07/13 05:12:32;;;;;;;10.73;9.63;;;;;;;20.92;77.19;101946.97;5012453;28;20061;-53
2022/07/13 05:14:59;;;;;;;11.45;10.32;;;;;;;20.86;75.22;101948.16;5011302;28;20046;-51
2022/07/13 05:17:25;;;;;;;10.95;9.90;;;;;;;20.85;76.13;101946.66;5012927;28;20055;-51
2022/07/13 05:19:52;;;;;;;11.68;9.65;;;;;;;20.84;75.90;101951.34;5012791;28;20137;-50
2022/07/13 05:22:18;;;;;;;12.82;8.93;;;;;;;20.84;76.43;101943.22;5012138;28;20058;-47
2022/07/13 05:24:44;;;;;;;10.27;8.27;;;;;;;20.85;76.22;101946.66;5010942;28;20055;-53
2022/07/13 05:27:11;;;;;;;9.60;8.70;;;;;;;20.83;74.72;101946.41;5013714;28;20491;-57
2022/07/13 05:29:38;;;;;;;9.55;8.60;;;;;;;20.88;73.81;101940.28;5014247;28;20058;-54
2022/07/13 05:32:05;;;;;;;9.13;8.32;;;;;;;20.91;75.26;101950.91;5030394;28;20101;-54
2022/07/13 05:34:32;;;;;;;9.32;8.20;;;;;;;20.96;74.18;101952.91;5015653;28;20487;-54
2022/07/13 05:36:58;;;;;;;9.63;8.82;;;;;;;21.05;74.26;101949.28;5015863;28;20054;-51
2022/07/13 05:39:24;;;;;;;8.73;7.75;;;;;;;21.06;74.35;101955.44;5016040;28;20055;-52
2022/07/13 05:41:51;;;;;;;8.75;8.05;;;;;;;21.08;73.69;101948.31;5015778;28;20137;-53
2022/07/13 05:44:17;;;;;;;8.85;8.15;;;;;;;21.07;74.77;101948.78;5016170;28;20066;-53
2022/07/13 05:46:43;;;;;;;10.07;7.82;;;;;;;21.11;75.12;101954.72;5015982;28;20053;-52
2022/07/13 05:49:10;;;;;;;10.98;8.00;;;;;;;21.13;74.83;101966.53;5013901;28;20085;-50
2022/07/13 05:51:36;;;;;;;10.60;8.50;;;;;;;21.15;72.71;101952.53;5016153;28;20054;-54
2022/07/13 05:54:03;;;;;;;8.70;7.88;;;;;;;21.14;72.92;101961.88;5014533;28;20142;-51
2022/07/13 05:56:49;;;;;;;12.27;7.75;;;;;;;21.21;72.19;101962.16;5015636;28;20058;-53
2022/07/13 05:59:16;;;;;;;8.43;7.18;;;;;;;21.27;73.42;101962.94;5015807;28;20367;-52
2022/07/13 06:01:43;;;;;;;9.02;7.90;;;;;;;21.29;71.46;101957.03;5014338;28;20524;-51
2022/07/13 06:04:09;;;;;;;9.15;7.80;;;;;;;21.43;72.04;101956.13;5014315;28;20060;-51
2022/07/13 06:06:36;;;;;;;13.82;7.72;;;;;;;21.56;71.31;101956.44;5015007;28;20540;-53
2022/07/13 06:09:03;;;;;;;10.73;7.85;;;;;;;21.72;71.35;101954.25;5015900;28;20050;-52
2022/07/13 06:11:30;;;;;;;8.90;8.05;;;;;;;21.87;70.60;101949.38;5015306;28;20052;-49
2022/07/13 06:13:56;;;;;;;8.57;7.68;;;;;;;22.03;69.89;101958.78;5015966;28;20054;-55
2022/07/13 06:16:23;;;;;;;8.43;7.65;;;;;;;22.09;69.17;101957.56;5015793;28;20050;-50
2022/07/13 06:18:49;;;;;;;8.45;7.75;;;;;;;22.04;69.22;101958.31;5015616;28;20058;-52
2022/07/13 06:21:16;;;;;;;10.85;8.23;;;;;;;22.08;69.39;101956.09;5012419;28;20061;-53
2022/07/13 06:23:42;;;;;;;8.52;7.75;;;;;;;22.22;68.83;101949.72;5015364;28;20046;-52
2022/07/13 06:26:09;;;;;;;8.48;7.63;;;;;;;22.32;68.70;101954.91;5015878;28;20050;-50
2022/07/13 06:28:35;;;;;;;11.02;7.40;;;;;;;22.36;69.14;101955.41;5015694;28;20054;-50
2022/07/13 06:31:01;;;;;;;7.95;7.30;;;;;;;22.32;69.23;101960.34;5015113;28;20047;-50
2022/07/13 06:33:28;;;;;;;8.27;7.47;;;;;;;22.35;68.25;101965.50;5015784;28;20054;-49
2022/07/13 06:35:54;;;;;;;11.45;7.38;;;;;;;22.36;68.49;101968.97;5014663;28;20506;-49
2022/07/13 06:38:21;;;;;;;8.50;7.47;;;;;;;22.43;67.99;101957.59;5015498;28;20059;-49
2022/07/13 06:40:47;;;;;;;7.80;7.10;;;;;;;22.47;68.25;101972.41;5015482;28;20137;-50
2022/07/13 06:43:14;;;;;;;10.57;6.57;;;;;;;22.63;69.40;101973.66;5015168;28;20050;-52
2022/07/13 06:45:41;;;;;;;8.23;7.10;;;;;;;22.83;67.96;101962.53;5014845;28;20142;-49
2022/07/13 06:48:07;;;;;;;10.68;6.65;;;;;;;23.11;67.15;101964.47;5015066;28;20081;-51
2022/07/13 06:50:53;;;;;;;7.40;6.13;;;;;;;23.45;65.85;101967.81;5014096;28;20046;-54
2022/07/13 06:53:20;;;;;;;6.63;6.15;;;;;;;23.70;66.15;101960.56;5015419;28;20068;-52
2022/07/13 06:55:46;;;;;;;7.00;6.28;;;;;;;23.74;65.64;101961.03;5014610;28;20047;-55
2022/07/13 06:58:13;;;;;;;7.47;5.40;;;;;;;23.97;63.04;101958.94;5015233;28;20047;-51
2022/07/13 07:00:39;;;;;;;8.82;5.07;;;;;;;24.32;62.44;101958.22;5014854;28;20054;-53
2022/07/13 07:03:06;;;;;;;6.15;5.00;;;;;;;24.48;62.67;101960.06;5015028;28;20154;-54
2022/07/13 07:05:32;;;;;;;6.32;5.00;;;;;;;24.75;62.62;101953.63;5012400;28;20055;-51
2022/07/13 07:08:00;;;;;;;9.07;5.28;;;;;;;24.72;60.82;101960.09;5012137;28;20057;-54
2022/07/13 07:10:26;;;;;;;5.10;4.65;;;;;;;25.13;60.39;101953.75;5012781;28;20468;-51
2022/07/13 07:12:58;;;;;;;6.60;4.28;;;;;;;27.15;55.99;101966.59;5028464;28;20142;-52
2022/07/13 07:15:25;;;;;;;4.93;4.45;;;;;;;30.90;46.11;101959.06;5011375;28;20999;-50
2022/07/13 07:17:51;;;;;;;8.77;4.20;;;;;;;32.78;41.23;101963.19;5013359;28;20054;-51
2022/07/13 07:20:18;;;;;;;4.57;3.83;;;;;;;33.31;38.63;101981.13;5012362;28;20134;-54
2022/07/13 07:22:46;;;;;;;5.40;3.65;;;;;;;33.76;38.58;101977.72;5014586;28;20054;-51
2022/07/13 07:25:14;;;;;;;4.25;3.90;;;;;;;34.03;36.13;101966.66;5013399;28;20212;-53
2022/07/13 07:27:41;;;;;;;9.40;4.18;;;;;;;34.44;36.99;101978.69;5014216;28;20051;-55
2022/07/13 07:30:08;;;;;;;4.00;3.80;;;;;;;34.88;34.58;101979.72;5013717;28;20439;-51
2022/07/13 07:32:34;;;;;;;5.63;3.83;;;;;;;34.22;36.90;101968.00;5014085;28;20061;-54
2022/07/13 07:35:01;;;;;;;3.88;3.40;;;;;;;34.05;36.68;101963.31;5013819;28;20087;-56
2022/07/13 07:37:27;;;;;;;7.30;3.67;;;;;;;33.48;40.58;101964.53;5014103;28;20491;-55
2022/07/13 07:39:54;;;;;;;5.20;3.70;;;;;;;32.84;38.95;101962.91;5014255;28;20054;-55
2022/07/13 07:42:20;;;;;;;3.90;3.50;;;;;;;32.49;39.50;101971.16;5013946;28;20050;-56
2022/07/13 07:44:46;;;;;;;5.40;4.28;;;;;;;31.34;41.21;101962.22;5013681;28;20046;-51
2022/07/13 07:47:13;;;;;;;5.50;3.75;;;;;;;31.55;43.89;101968.19;5014338;28;20485;-53
2022/07/13 07:49:39;;;;;;;6.20;3.78;;;;;;;31.96;41.11;101960.59;5012640;28;20058;-54
2022/07/13 07:52:07;;;;;;;11.18;4.05;;;;;;;32.49;42.62;101960.13;5014094;28;20065;-55
2022/07/13 07:54:53;;;;;;;10.57;4.20;;;;;;;32.20;41.36;101945.31;5013744;28;20054;-56
2022/07/13 07:57:26;;;;;;;6.07;4.53;;;;;;;31.21;42.58;101943.22;5013701;28;20058;-54
2022/07/13 07:59:52;;;;;;;7.97;4.10;;;;;;;32.19;43.85;101952.88;5013953;28;20050;-56
2022/07/13 08:02:19;;;;;;;4.65;4.22;;;;;;;33.30;40.21;101966.59;5014228;28;20058;-49
2022/07/13 08:04:46;;;;;;;4.97;4.20;;;;;;;33.70;37.67;101957.94;5013414;28;20129;-48
2022/07/13 08:07:12;;;;;;;11.00;4.32;;;;;;;32.04;40.06;101953.72;5014110;28;20061;-49
2022/07/13 08:09:39;;;;;;;7.07;4.10;;;;;;;31.08;42.89;101949.66;5013673;28;20090;-53
2022/07/13 08:12:05;;;;;;;6.32;3.65;;;;;;;30.81;45.89;101952.84;5013181;28;20052;-48
2022/07/13 08:14:32;;;;;;;5.43;3.92;;;;;;;31.32;44.91;101953.78;5013809;28;20057;-52
2022/07/13 08:16:59;;;;;;;8.48;4.00;;;;;;;31.20;44.52;101956.22;5010734;28;20064;-51
2022/07/13 08:19:25;;;;;;;9.13;4.38;;;;;;;30.55;45.91;101958.75;5013897;28;20055;-51
2022/07/13 08:22:06;;;;;;;4.35;3.58;;;;;;;30.50;45.27;101967.91;5012911;28;20055;-52
2022/07/13 08:24:32;;;;;;;4.10;3.50;;;;;;;31.02;43.77;101969.13;5013711;28;20540;-49
2022/07/13 08:26:59;;;;;;;9.38;4.30;;;;;;;30.92;44.74;101964.75;5013877;28;20046;-50
2022/07/13 08:29:25;;;;;;;4.72;3.53;;;;;;;30.75;43.83;101971.59;5012382;28;20050;-53
2022/07/13 08:31:52;;;;;;;3.70;3.40;;;;;;;31.39;43.30;101964.03;5013482;28;20061;-49
2022/07/13 08:39:47;;;;;;;7.95;3.35;;;;;;;31.09;44.76;101967.63;5013152;28;20058;-51
2022/07/13 08:42:14;;;;;;;5.55;3.38;;;;;;;31.42;44.10;101960.16;5008790;28;20197;-52
2022/07/13 08:44:41;;;;;;;4.75;3.13;;;;;;;31.79;44.48;101961.97;5011902;28;20050;-54
2022/07/13 08:47:09;;;;;;;4.65;3.65;;;;;;;31.82;42.02;101960.13;5011329;28;20146;-51
2022/07/13 08:49:36;;;;;;;5.55;3.30;;;;;;;31.51;42.55;101959.56;5011842;28;20051;-51
2022/07/13 08:52:03;;;;;;;6.88;2.90;;;;;;;31.69;42.84;101955.63;5011542;28;20051;-53
2022/07/13 08:54:29;;;;;;;3.30;3.00;;;;;;;32.25;43.67;101966.44;5010612;28;20064;-52
2022/07/13 08:56:56;;;;;;;8.32;3.58;;;;;;;32.60;39.48;101967.94;5011947;28;20507;-56
2022/07/13 08:59:22;;;;;;;3.28;2.88;;;;;;;32.80;38.33;101966.81;5011108;28;20051;-58
2022/07/13 09:01:49;;;;;;;5.57;3.05;;;;;;;32.94;36.62;101972.72;5008068;28;20137;-57
2022/07/13 09:04:16;;;;;;;2.80;2.60;;;;;;;33.24;37.60;101970.88;5013871;28;20448;-52
2022/07/13 09:06:44;;;;;;;2.72;2.63;;;;;;;33.39;38.80;101968.69;5015481;28;20055;-56
2022/07/13 09:09:24;;;;;;;2.42;2.33;;;;;;;33.28;37.05;101974.72;5014107;28;20074;-55
2022/07/13 09:12:11;;;;;;;8.07;2.90;;;;;;;33.69;36.58;101969.56;5014352;28;20063;-50
2022/07/13 09:14:39;;;;;;;2.95;2.65;;;;;;;33.70;38.31;101971.00;5015482;28;20137;-56
2022/07/13 09:17:05;;;;;;;3.63;2.40;;;;;;;33.82;35.64;101971.97;5015434;28;20073;-57
2022/07/13 09:19:38;;;;;;;3.83;2.50;;;;;;;33.83;36.29;101967.91;5014466;28;20479;-55
2022/07/13 09:22:12;;;;;;;4.22;2.83;;;;;;;33.98;38.22;101973.19;5013317;28;20571;-56
2022/07/13 09:24:42;;;;;;;4.72;2.40;;;;;;;34.37;35.70;101965.00;5014920;28;20479;-56
2022/07/13 09:27:09;;;;;;;4.55;2.50;;;;;;;34.17;34.83;101966.25;5015907;28;20521;-51
2022/07/13 09:29:39;;;;;;;5.78;2.45;;;;;;;34.18;36.31;101970.47;5016137;28;20082;-56
2022/07/13 09:32:11;;;;;;;8.57;2.28;;;;;;;34.07;34.45;101971.75;5016504;28;20056;-54
2022/07/13 09:34:51;;;;;;;4.05;2.13;;;;;;;34.06;34.64;101965.50;5016161;28;20065;-53
2022/07/13 09:37:26;;;;;;;2.90;2.70;;;;;;;34.28;32.60;101963.66;5016421;28;20161;-54
2022/07/13 09:40:09;;;;;;;3.05;2.35;;;;;;;34.37;34.00;101970.53;5016300;28;20054;-53
2022/07/13 09:42:39;;;;;;;3.75;2.55;;;;;;;34.46;34.61;101975.34;5016814;28;20411;-50
2022/07/13 09:47:54;;;;;;;2.78;2.10;;;;;;;34.55;31.81;101980.16;5016760;28;20065;-51
2022/07/13 09:50:36;;;;;;;2.33;2.10;;;;;;;34.22;32.55;101979.06;5012212;28;20055;-53
2022/07/13 09:53:22;;;;;;;7.93;2.40;;;;;;;34.51;31.37;101971.56;5014102;28;20493;-54
2022/07/13 09:55:51;;;;;;;3.67;2.20;;;;;;;34.88;33.27;101980.47;5013064;28;20057;-55
2022/07/13 09:58:29;;;;;;;3.37;2.10;;;;;;;34.45;33.17;101979.41;5015178;28;20503;-55
2022/07/13 10:00:57;;;;;;;2.30;2.10;;;;;;;34.46;31.34;101972.56;5015099;28;20055;-53
2022/07/13 10:03:25;;;;;;;3.53;1.83;;;;;;;34.41;28.66;101985.34;5014469;28;20420;-53
2022/07/13 10:05:54;;;;;;;6.20;2.35;;;;;;;33.92;31.35;101977.53;5012722;28;20471;-57
2022/07/13 10:08:22;;;;;;;2.20;2.10;;;;;;;34.07;32.24;101978.00;5015022;28;20050;-56
2022/07/13 10:10:50;;;;;;;3.13;1.95;;;;;;;34.47;31.16;101981.59;5014319;28;20065;-53
2022/07/13 10:13:17;;;;;;;5.00;2.20;;;;;;;34.63;32.19;101972.44;5014281;28;20125;-53
2022/07/13 10:15:45;;;;;;;3.70;2.33;;;;;;;34.89;30.63;101981.19;5014168;28;20046;-56
2022/07/13 10:18:30;;;;;;;4.95;2.15;;;;;;;35.54;31.91;101969.13;5015535;28;20058;-53
2022/07/13 10:21:12;;;;;;;2.67;2.00;;;;;;;35.53;31.16;101976.00;5013955;28;20050;-53
2022/07/13 10:23:39;;;;;;;4.60;2.10;;;;;;;34.45;29.10;101971.84;5015790;28;20442;-53
2022/07/13 10:26:22;;;;;;;4.78;2.20;;;;;;;34.26;30.82;101987.66;5015587;28;20061;-55
2022/07/13 10:29:06;;;;;;;9.20;2.08;;;;;;;34.49;30.44;101985.22;5015821;28;20109;-55
2022/07/13 10:31:36;;;;;;;5.95;2.20;;;;;;;34.38;31.51;101994.09;5013962;28;20064;-54
2022/07/13 10:34:04;;;;;;;13.88;3.33;;;;;;;34.11;29.14;101994.88;5012951;28;20062;-51
2022/07/13 10:36:54;;;;;;;3.53;2.05;;;;;;;33.60;31.65;101992.31;5014922;28;20046;-50
2022/07/13 10:39:24;;;;;;;3.10;1.90;;;;;;;33.30;31.35;101996.22;5014605;28;20065;-53
2022/07/13 10:41:55;;;;;;;2.13;1.77;;;;;;;33.38;32.85;101985.81;5013833;28;20050;-53
2022/07/13 10:44:35;;;;;;;2.35;2.17;;;;;;;33.13;31.31;101994.94;5014211;28;20047;-52
2022/07/13 10:47:03;;;;;;;3.67;2.15;;;;;;;32.75;33.02;101998.13;5014645;28;20077;-56
2022/07/13 10:49:38;;;;;;;2.45;1.90;;;;;;;33.62;30.28;101998.72;5013508;28;20546;-55
2022/07/13 10:52:27;;;;;;;3.72;1.90;;;;;;;34.45;32.61;102005.00;5013338;28;20077;-57
2022/07/13 10:55:19;;;;;;;2.15;2.00;;;;;;;34.82;30.31;102006.94;5013324;28;20954;-55
2022/07/13 10:57:46;;;;;;;3.97;2.20;;;;;;;34.44;31.94;102005.59;5012542;28;20154;-55
2022/07/13 11:00:18;;;;;;;2.53;2.10;;;;;;;34.51;32.95;102012.28;5014033;28;20058;-56
2022/07/13 11:02:49;;;;;;;2.33;1.90;;;;;;;34.55;31.28;102018.84;5013891;28;20066;-53
2022/07/13 11:05:19;;;;;;;3.90;2.03;;;;;;;34.60;30.29;102017.84;5013090;28;20113;-56
2022/07/13 11:07:47;;;;;;;7.00;1.90;;;;;;;34.82;29.46;102020.78;5014400;28;20514;-55
2022/07/13 11:10:16;;;;;;;2.70;2.08;;;;;;;34.87;31.23;102022.53;5013786;28;20051;-57
2022/07/13 11:13:13;;;;;;;4.05;1.90;;;;;;;34.58;29.17;102028.03;5012691;28;20128;-57
2022/07/13 11:15:49;;;;;;;3.17;1.92;;;;;;;34.20;29.62;102020.34;5012499;28;20054;-51
2022/07/13 11:18:24;;;;;;;13.82;2.00;;;;;;;33.52;29.96;102022.81;5013280;28;20603;-52
2022/07/13 11:20:56;;;;;;;3.10;1.88;;;;;;;33.44;30.20;102022.19;5012182;28;20180;-53
2022/07/13 11:26:23;;;;;;;4.32;2.38;;;;;;;33.17;31.89;102024.88;5013850;28;20050;-52
2022/07/13 11:29:03;;;;;;;;;;;;;;;33.22;32.00;102023.88;5015009;28;20060;-56
2022/07/13 11:31:31;;;;;;;5.28;2.63;;;;;;;33.09;32.30;102024.22;5014509;28;19926;-56
2022/07/13 11:33:57;;;;;;;2.85;2.20;;;;;;;32.75;31.28;102020.19;5014538;28;20046;-56